Time;durP1;ratioP1;P1;durP2;ratioP2;P2;SDS_P1;SDS_P2;PMS_P1;PMS_P2;Temp;Humidity;BMP_temperature;BMP_pressure;BME280_temperature;BME280_humidity;BME280_pressure;Samples;Min_cycle;Max_cycle;Signal;HPM_P1;HPM_P2
2023/05/08 00:00:45;;;;;;;;;10.00;10.00;;;;;16.42;83.67;101734.00;4978630;28;45537;-65
2023/05/08 00:03:11;;;;;;;;;9.00;9.00;;;;;16.56;83.54;101756.81;4979351;28;45280;-65
2023/05/08 00:05:36;;;;;;;;;16.50;13.75;;;;;16.58;83.72;101758.50;4979268;28;45407;-65
2023/05/08 00:08:01;;;;;;;;;12.50;12.50;;;;;16.51;83.32;101748.03;4977693;28;48023;-65
2023/05/08 00:10:27;;;;;;;;;13.00;13.00;;;;;16.49;83.29;101748.09;4978806;28;45330;-65
2023/05/08 00:12:54;;;;;;;;;12.75;12.25;;;;;16.41;83.13;101740.31;4989860;27;45501;-65
2023/05/08 00:15:19;;;;;;;;;14.50;13.50;;;;;16.44;83.63;101759.06;4981318;28;45342;-65
2023/05/08 00:17:44;;;;;;;;;15.75;15.50;;;;;16.52;83.43;101764.13;4963811;28;46530;-65
2023/05/08 00:20:10;;;;;;;;;11.75;10.75;;;;;16.39;83.47;101746.69;4979229;28;45579;-65
2023/05/08 00:22:36;;;;;;;;;15.00;13.50;;;;;16.51;83.13;101762.38;4978761;28;45386;-65
2023/05/08 00:25:03;;;;;;;;;7.75;7.00;;;;;16.43;83.02;101756.44;4979176;28;45512;-65
2023/05/08 00:27:28;;;;;;;;;12.75;12.75;;;;;16.49;82.92;101761.59;4976534;28;48499;-65
2023/05/08 00:29:54;;;;;;;;;11.50;11.50;;;;;16.35;83.08;101747.78;4977618;28;45373;-65
2023/05/08 00:32:19;;;;;;;;;15.75;14.00;;;;;16.37;82.88;101756.66;4959519;28;45712;-65
2023/05/08 00:34:44;;;;;;;;;11.50;10.25;;;;;16.25;83.24;101736.50;4959561;28;45510;-65
2023/05/08 00:37:10;;;;;;;;;10.75;10.75;;;;;16.36;83.03;101763.03;4963885;28;47199;-65
2023/05/08 00:39:35;;;;;;;;;10.00;10.00;;;;;16.30;83.26;101750.66;4970143;28;45366;-65
2023/05/08 00:42:00;;;;;;;;;12.25;11.00;;;;;16.20;82.79;101735.81;4990518;28;45349;-65
2023/05/08 00:44:26;;;;;;;;;10.75;10.75;;;;;16.29;83.07;101754.31;5005702;28;45876;-65
2023/05/08 00:46:51;;;;;;;;;10.25;10.25;;;;;16.26;83.37;101749.91;4991005;27;45500;-65
2023/05/08 00:49:17;;;;;;;;;11.75;9.75;;;;;16.18;83.22;101733.16;4973313;28;45721;-65
2023/05/08 00:51:45;;;;;;;;;11.50;11.00;;;;;16.19;82.95;101729.56;4957966;28;45257;-65
2023/05/08 00:54:11;;;;;;;;;12.75;12.00;;;;;16.30;82.97;101747.97;4959228;28;45545;-65
2023/05/08 00:56:37;;;;;;;;;11.25;11.25;;;;;16.19;83.00;101734.03;4958963;28;45566;-65
2023/05/08 00:59:07;;;;;;;;;10.50;10.50;;;;;16.05;82.95;101713.91;4959146;28;45414;-65
2023/05/08 01:01:35;;;;;;;;;10.75;10.00;;;;;16.25;82.93;101736.50;4957603;28;45371;-65
2023/05/08 01:04:02;;;;;;;;;10.50;10.50;;;;;16.11;83.07;101713.69;4959215;28;45472;-65
2023/05/08 01:06:28;;;;;;;;;13.00;12.75;;;;;16.14;82.97;101718.09;4989326;28;45413;-65
2023/05/08 01:08:53;;;;;;;;;11.25;11.00;;;;;16.17;82.99;101720.66;4966332;28;45865;-65
2023/05/08 01:11:28;;;;;;;;;10.75;10.75;;;;;16.18;82.80;101733.16;4982337;28;45440;-65
2023/05/08 01:13:56;;;;;;;;;14.00;10.25;;;;;16.21;82.84;101741.13;4966657;28;45449;-65
2023/05/08 01:16:43;;;;;;;;;14.00;12.25;;;;;16.16;82.93;101743.13;4978006;28;47493;-65
2023/05/08 01:19:34;;;;;;;;;10.00;8.50;;;;;15.99;82.90;101721.38;4970774;28;45399;-65
2023/05/08 01:22:16;;;;;;;;;11.75;9.75;;;;;16.10;83.04;101744.28;4977928;28;45536;-65
2023/05/08 01:25:07;;;;;;;;;15.75;14.75;;;;;16.06;82.79;101739.94;4959050;28;45411;-65
2023/05/08 01:27:51;;;;;;;;;9.75;9.75;;;;;16.12;82.80;101760.34;4958482;28;45411;-65
2023/05/08 01:30:48;;;;;;;;;14.75;13.50;;;;;16.09;82.87;101758.66;4973433;28;45288;-65
2023/05/08 01:33:21;;;;;;;;;8.00;7.25;;;;;15.96;82.83;101746.63;4958885;28;45376;-65
2023/05/08 01:35:52;;;;;;;;;10.75;9.50;;;;;16.05;82.81;101764.22;4958619;28;45346;-65
2023/05/08 01:38:46;;;;;;;;;13.25;11.75;;;;;16.05;82.65;101764.22;4985148;27;48090;-65
2023/05/08 01:41:16;;;;;;;;;12.50;12.00;;;;;15.88;82.74;101732.56;4958215;28;45370;-65
2023/05/08 01:44:05;;;;;;;;;10.00;10.00;;;;;15.96;82.55;101749.31;4961824;28;45371;-65
2023/05/08 01:46:32;;;;;;;;;13.75;13.75;;;;;15.94;82.85;101743.13;4982117;28;45614;-65
2023/05/08 01:48:59;;;;;;;;;13.25;12.25;;;;;15.97;82.70;101756.47;4958497;28;46965;-65
2023/05/08 01:51:31;;;;;;;;;13.75;13.00;;;;;15.82;82.64;101739.09;4958385;28;45534;-65
2023/05/08 01:54:02;;;;;;;;;14.50;11.75;;;;;15.81;82.70;101725.69;4959171;28;45752;-65
2023/05/08 01:56:29;;;;;;;;;14.50;14.50;;;;;15.80;82.67;101722.09;4958477;28;45486;-65
2023/05/08 01:58:57;;;;;;;;;10.50;10.50;;;;;15.99;82.68;101761.75;4958428;28;45260;-65
2023/05/08 02:01:24;;;;;;;;;13.75;13.00;;;;;16.00;82.42;101760.84;4971084;28;45465;-65
2023/05/08 02:03:51;;;;;;;;;11.75;10.75;;;;;15.83;82.87;101738.13;4941247;28;45419;-65
2023/05/08 02:06:20;;;;;;;;;15.75;15.25;;;;;15.93;82.46;101749.41;4956936;28;45826;-65
2023/05/08 02:08:47;;;;;;;;;12.75;12.75;;;;;15.86;82.74;101742.53;4977941;28;46106;-65
2023/05/08 02:11:15;;;;;;;;;15.25;13.75;;;;;15.83;82.74;101739.94;5013904;27;45791;-65
2023/05/08 02:13:43;;;;;;;;;15.00;13.75;;;;;15.86;82.65;101751.47;4982690;28;45448;-65
2023/05/08 02:16:11;;;;;;;;;14.00;13.00;;;;;15.87;82.81;101753.25;4974666;28;45577;-65
2023/05/08 02:18:38;;;;;;;;;14.75;11.50;;;;;15.77;82.94;101733.00;4966647;28;45513;-65
2023/05/08 02:21:05;;;;;;;;;15.25;14.00;;;;;15.87;82.95;101752.34;4958108;28;45384;-65
2023/05/08 02:23:33;;;;;;;;;14.25;13.00;;;;;15.84;82.68;101747.09;4967638;28;45438;-65
2023/05/08 02:26:00;;;;;;;;;14.00;14.00;;;;;15.90;82.45;101763.91;4971943;28;45289;-65
2023/05/08 02:28:28;;;;;;;;;16.00;16.00;;;;;15.95;82.92;101757.44;4958090;28;45494;-65
2023/05/08 02:30:55;;;;;;;;;17.75;16.00;;;;;15.87;83.07;101755.03;4957723;28;45504;-65
2023/05/08 02:33:22;;;;;;;;;16.75;14.75;;;;;15.91;82.88;101762.06;4958224;28;45524;-65
2023/05/08 02:35:49;;;;;;;;;16.50;14.75;;;;;15.77;82.78;101759.03;4958074;28;45426;-65
2023/05/08 02:38:18;;;;;;;;;12.25;12.00;;;;;15.80;83.18;101754.38;4969074;28;45419;-65
2023/05/08 02:40:48;;;;;;;;;13.75;13.75;;;;;15.91;83.14;101756.69;4959245;28;45536;-65
2023/05/08 02:43:13;;;;;;;;;16.25;14.75;;;;;15.86;83.13;101751.47;4958124;28;45275;-65
2023/05/08 02:45:46;;;;;;;;;18.25;16.75;;;;;15.89;82.54;101770.22;5027885;28;45394;-65
2023/05/08 02:48:18;;;;;;;;;20.00;19.25;;;;;15.72;82.78;101751.09;4956148;28;47059;-65
2023/05/08 02:51:00;;;;;;;;;16.75;15.75;;;;;15.88;82.52;101776.53;4972507;28;45408;-65
2023/05/08 02:53:36;;;;;;;;;18.00;16.25;;;;;15.83;82.65;101777.63;4973083;28;45601;-65
2023/05/08 02:56:28;;;;;;;;;19.75;17.75;;;;;15.70;82.31;101755.66;4957752;28;45651;-65
2023/05/08 02:59:09;;;;;;;;;20.00;16.50;;;;;15.68;82.74;101766.47;4957451;28;46211;-65
2023/05/08 03:01:44;;;;;;;;;21.25;18.75;;;;;15.67;82.89;101771.91;4957314;28;45660;-65
2023/05/08 03:04:16;;;;;;;;;19.50;18.75;;;;;15.61;82.69;101766.78;4957923;28;45472;-65
2023/05/08 03:06:45;;;;;;;;;17.00;17.00;;;;;15.68;82.73;101779.06;4957478;28;45391;-65
2023/05/08 03:09:17;;;;;;;;;18.25;18.25;;;;;15.66;82.50;101775.56;4957605;28;45378;-65
2023/05/08 03:11:46;;;;;;;;;17.50;17.50;;;;;15.59;82.59;101774.03;4980566;28;45406;-65
2023/05/08 03:14:15;;;;;;;;;16.00;15.25;;;;;15.59;82.66;101777.59;4972457;28;45459;-65
2023/05/08 03:16:43;;;;;;;;;23.75;19.00;;;;;15.50;82.80;101762.69;4984593;28;45961;-65
2023/05/08 03:19:25;;;;;;;;;17.75;16.00;;;;;15.46;82.44;101765.53;4961775;28;45920;-65
2023/05/08 03:21:53;;;;;;;;;21.50;18.25;;;;;15.40;82.44;101763.91;4957466;28;45299;-65
2023/05/08 03:24:21;;;;;;;;;19.50;17.50;;;;;15.43;82.91;101763.81;4956215;28;45389;-65
2023/05/08 03:26:46;;;;;;;;;22.75;21.25;;;;;15.45;82.68;101764.66;4957306;28;45370;-65
2023/05/08 03:29:13;;;;;;;;;23.50;20.50;;;;;15.44;82.68;101762.03;4988094;28;45394;-65
2023/05/08 03:31:41;;;;;;;;;23.00;22.75;;;;;15.42;82.62;101753.09;4964945;28;45624;-65
2023/05/08 03:34:08;;;;;;;;;17.50;16.50;;;;;15.41;82.51;101757.63;4956006;28;45447;-65
2023/05/08 03:36:34;;;;;;;;;19.75;18.75;;;;;15.43;82.59;101765.63;4957191;28;45310;-65
2023/05/08 03:38:59;;;;;;;;;19.25;18.50;;;;;15.27;82.41;101733.91;4978483;28;45474;-65
2023/05/08 03:41:25;;;;;;;;;21.25;19.50;;;;;15.36;82.50;101759.59;4984173;28;45327;-65
2023/05/08 03:43:52;;;;;;;;;21.50;20.75;;;;;15.37;82.57;101761.38;4975228;28;45327;-65
2023/05/08 03:46:18;;;;;;;;;19.00;19.00;;;;;15.39;82.54;101775.63;5015973;27;45440;-65
2023/05/08 03:48:46;;;;;;;;;20.75;20.75;;;;;15.40;82.69;101777.38;4968070;28;45334;-65
2023/05/08 03:51:11;;;;;;;;;21.25;20.75;;;;;15.30;82.75;101757.13;4984423;28;45575;-65
2023/05/08 03:53:37;;;;;;;;;19.50;18.25;;;;;15.24;82.85;101754.66;4958227;28;45674;-65
2023/05/08 03:56:03;;;;;;;;;23.00;20.00;;;;;15.38;82.54;101769.38;4956927;28;45447;-65
2023/05/08 03:58:40;;;;;;;;;23.00;23.00;;;;;15.40;82.69;101774.69;4956866;28;45383;-65
2023/05/08 04:01:26;;;;;;;;;20.50;20.00;;;;;15.19;82.58;101744.94;4956630;28;45642;-65
2023/05/08 04:04:06;;;;;;;;;20.25;18.75;;;;;15.35;82.49;101773.97;4957166;28;45351;-65
2023/05/08 04:07:02;;;;;;;;;16.75;15.50;;;;;15.36;82.58;101773.91;4971698;28;45415;-65
2023/05/08 04:10:08;;;;;;;;;24.75;20.25;;;;;15.36;82.51;101773.91;4956599;28;45491;-65
2023/05/08 04:12:54;;;;;;;;;24.25;21.25;;;;;15.29;82.47;101764.31;4999498;28;45687;-65
2023/05/08 04:15:23;;;;;;;;;22.50;21.00;;;;;15.24;82.58;101763.59;4975931;28;45504;-65
2023/05/08 04:17:52;;;;;;;;;28.75;26.00;;;;;15.21;82.13;101755.63;4972621;28;46259;-65
2023/05/08 04:20:21;;;;;;;;;23.25;20.00;;;;;15.18;82.70;101753.97;4970531;28;45479;-65
2023/05/08 04:22:49;;;;;;;;;25.75;24.00;;;;;15.26;82.25;101752.78;4956890;28;45594;-65
2023/05/08 04:25:17;;;;;;;;;27.75;27.75;;;;;15.27;82.28;101760.81;4956751;28;45311;-65
2023/05/08 04:27:44;;;;;;;;;28.75;24.25;;;;;15.18;82.64;101748.56;4956429;28;45606;-65
2023/05/08 04:30:09;;;;;;;;;26.50;20.75;;;;;15.23;82.38;101748.38;4954758;28;47666;-65
2023/05/08 04:32:36;;;;;;;;;29.50;28.25;;;;;15.24;82.63;101747.47;4956417;28;45436;-65
2023/05/08 04:35:02;;;;;;;;;28.75;26.25;;;;;15.32;82.30;101766.03;4955372;28;45316;-65
2023/05/08 04:37:30;;;;;;;;;25.25;23.25;;;;;15.26;82.32;101752.78;4959685;28;46031;-65
2023/05/08 04:39:56;;;;;;;;;21.50;19.50;;;;;15.25;81.73;101756.41;4972973;27;45672;-65
2023/05/08 04:42:23;;;;;;;;;25.00;25.00;;;;;15.14;81.54;101740.66;4973189;28;45425;-65
2023/05/08 04:44:48;;;;;;;;;23.50;21.00;;;;;15.23;81.60;101766.34;5009744;28;45537;-65
2023/05/08 04:47:13;;;;;;;;;19.50;18.00;;;;;14.97;82.02;101727.81;4972246;27;45466;-65
2023/05/08 04:49:39;;;;;;;;;21.25;21.25;;;;;15.14;81.87;101757.66;4957862;28;47241;-65
2023/05/08 04:52:05;;;;;;;;;23.75;23.75;;;;;15.10;82.26;101756.03;4958923;28;45383;-65
2023/05/08 04:54:31;;;;;;;;;22.50;21.00;;;;;15.13;82.38;101755.91;4959337;28;45418;-65
2023/05/08 04:56:56;;;;;;;;;21.00;20.50;;;;;15.10;82.02;101750.66;4957888;28;45685;-65
2023/05/08 04:59:23;;;;;;;;;23.75;22.25;;;;;15.07;82.13;101752.53;4959113;28;45556;-65
2023/05/08 05:01:49;;;;;;;;;23.00;20.75;;;;;14.98;82.13;101743.91;4958686;28;45269;-65
2023/05/08 05:04:14;;;;;;;;;25.25;20.00;;;;;15.14;82.03;101767.56;4958028;28;45327;-65
2023/05/08 05:06:39;;;;;;;;;18.50;14.50;;;;;15.17;81.74;101765.63;4970793;28;45529;-65
2023/05/08 05:09:05;;;;;;;;;27.75;27.25;;;;;15.17;81.88;101762.94;4980763;28;48150;-65
2023/05/08 05:11:30;;;;;;;;;21.00;20.25;;;;;15.20;82.09;101770.00;4986978;28;45417;-65
2023/05/08 05:13:56;;;;;;;;;23.75;22.25;;;;;15.15;81.84;101770.19;4979069;28;45489;-65
2023/05/08 05:16:21;;;;;;;;;21.75;20.25;;;;;15.27;82.06;101786.81;4977784;28;45410;-65
2023/05/08 05:18:46;;;;;;;;;19.25;19.25;;;;;15.22;81.99;101788.78;4965104;28;45440;-65
2023/05/08 05:21:12;;;;;;;;;20.25;20.25;;;;;15.24;81.96;101795.00;4959095;28;45267;-65
2023/05/08 05:23:37;;;;;;;;;23.00;21.50;;;;;15.26;81.77;101802.06;4957648;28;45468;-65
2023/05/08 05:26:03;;;;;;;;;22.00;21.25;;;;;15.19;81.56;101789.78;4973600;28;45391;-65
2023/05/08 05:28:28;;;;;;;;;21.00;21.00;;;;;15.27;81.25;101811.00;4973571;28;47433;-65
2023/05/08 05:30:54;;;;;;;;;18.75;17.75;;;;;15.08;80.85;101800.03;4974625;28;45431;-65
2023/05/08 05:33:19;;;;;;;;;27.25;25.00;;;;;14.93;81.12;101790.69;4957627;28;45369;-65
2023/05/08 05:35:45;;;;;;;;;23.00;21.50;;;;;15.00;81.56;101811.03;4957272;28;45502;-65
2023/05/08 05:38:10;;;;;;;;;18.75;17.25;;;;;14.92;81.18;101802.38;4984037;28;48025;-65
2023/05/08 05:40:35;;;;;;;;;18.00;17.75;;;;;14.73;81.65;101773.41;4959695;28;45466;-65
2023/05/08 05:43:01;;;;;;;;;20.75;20.50;;;;;14.82;81.76;101796.44;4958776;28;45423;-65
2023/05/08 05:45:26;;;;;;;;;21.50;19.50;;;;;14.94;82.05;101811.25;5024777;28;45452;-65
2023/05/08 05:47:52;;;;;;;;;18.50;18.50;;;;;15.02;81.86;101825.34;4960920;28;45434;-65
2023/05/08 05:50:18;;;;;;;;;18.75;17.25;;;;;14.92;81.74;101805.94;4958465;28;45467;-65
2023/05/08 05:52:44;;;;;;;;;21.25;18.75;;;;;14.86;81.78;101800.75;4958603;28;45410;-65
2023/05/08 05:55:09;;;;;;;;;16.00;13.75;;;;;14.91;81.71;101814.06;4959067;28;45327;-65
2023/05/08 05:57:35;;;;;;;;;19.00;17.00;;;;;14.90;81.87;101796.16;4957294;28;46284;-65
2023/05/08 06:00:01;;;;;;;;;17.00;14.00;;;;;15.02;81.58;101817.25;4958540;28;45450;-65
2023/05/08 06:03:09;;;;;;;;;23.50;17.25;;;;;14.99;81.80;101822.75;4966991;28;45572;-67
2023/05/08 06:05:50;;;;;;;;;;;;;;;;;;;;;
2023/05/08 06:09:09;;;;;;;;;;;;;;;;;;;;;
2023/05/08 06:12:15;;;;;;;;;;;;;;;;;;;;;
2023/05/08 06:15:13;;;;;;;;;;;;;;;;;;;;;
2023/05/08 06:17:59;;;;;;;;;;;;;;;;;;;;;
2023/05/08 06:20:54;;;;;;;;;;;;;;;;;;;;;
2023/05/08 06:24:11;;;;;;;;;;;;;;;;;;;;;
2023/05/08 06:32:51;;;;;;;;;;;;;;;;;;;;;
2023/05/08 06:42:11;;;;;;;;;;;;;;;;;;;;;
2023/05/08 06:45:25;;;;;;;;;;;;;;;;;;;;;
2023/05/08 06:48:32;;;;;;;;;;;;;;;;;;;;;
2023/05/08 06:50:58;;;;;;;;;19.25;18.75;;;;;15.08;81.14;101838.53;4961650;28;67270;-66
2023/05/08 07:11:21;;;;;;;;;;;;;;;;;;;;;
2023/05/08 07:14:45;;;;;;;;;;;;;;;;;;;;;
2023/05/08 07:54:49;;;;;;;;;11.75;10.50;;;;;14.96;80.90;101853.28;4977013;28;45566;-66
2023/05/08 07:57:14;;;;;;;;;11.00;11.00;;;;;15.02;80.42;101860.28;4972527;28;45464;-66
2023/05/08 07:59:39;;;;;;;;;11.25;11.25;;;;;15.14;80.06;101891.25;5018198;28;45307;-66
2023/05/08 08:02:06;;;;;;;;;12.00;11.50;;;;;14.96;80.36;101882.84;4967910;28;45513;-66
2023/05/08 08:04:31;;;;;;;;;13.25;13.25;;;;;15.09;80.91;101898.63;4991525;28;46547;-66
2023/05/08 08:06:57;;;;;;;;;12.50;12.00;;;;;15.02;81.25;101895.25;4967811;28;45397;-66
2023/05/08 08:09:23;;;;;;;;;13.25;13.25;;;;;15.00;81.02;101887.22;5008265;28;45486;-66
2023/05/08 08:11:48;;;;;;;;;12.75;12.75;;;;;15.07;80.52;101895.97;4994416;28;46112;-66
2023/05/08 08:14:13;;;;;;;;;10.25;10.25;;;;;14.96;80.66;101877.47;4965242;28;45573;-66
2023/05/08 08:16:39;;;;;;;;;13.00;10.50;;;;;15.15;81.01;101904.66;5033661;28;45331;-65
2023/05/08 08:19:04;;;;;;;;;12.00;11.00;;;;;15.06;80.87;101879.88;4995081;27;45502;-66
2023/05/08 08:21:30;;;;;;;;;11.25;10.25;;;;;15.15;80.81;101895.69;4977928;28;45519;-66
2023/05/08 08:23:56;;;;;;;;;12.75;12.00;;;;;15.24;80.71;101899.91;4979561;28;45527;-67
2023/05/08 08:26:21;;;;;;;;;9.75;9.25;;;;;15.15;81.08;101872.41;4974316;28;45414;-66
2023/05/08 08:28:46;;;;;;;;;8.00;8.00;;;;;15.22;81.25;101878.44;4971228;28;45582;-66
2023/05/08 08:31:12;;;;;;;;;15.00;13.00;;;;;15.13;81.27;101857.22;4964034;28;50817;-66
2023/05/08 08:33:37;;;;;;;;;12.00;12.00;;;;;15.29;80.80;101885.38;4991368;28;45500;-67
2023/05/08 08:36:03;;;;;;;;;12.00;12.00;;;;;15.27;81.32;101886.34;4965601;28;45252;-66
2023/05/08 08:38:28;;;;;;;;;15.25;14.25;;;;;15.40;80.73;101903.81;4982892;28;45449;-66
2023/05/08 08:40:53;;;;;;;;;11.00;10.00;;;;;15.36;80.43;101891.41;4959470;28;45397;-66
2023/05/08 08:43:19;;;;;;;;;13.50;13.00;;;;;15.54;80.64;101912.31;4982561;28;45293;-65
2023/05/08 08:45:44;;;;;;;;;14.50;11.50;;;;;15.56;80.66;101917.63;5022410;28;45489;-66
2023/05/08 08:48:11;;;;;;;;;17.00;13.25;;;;;15.49;80.80;101899.97;4977125;28;45622;-66
2023/05/08 08:50:41;;;;;;;;;13.25;12.50;;;;;15.39;80.56;101875.19;5047788;28;46772;-66
2023/05/08 08:53:14;;;;;;;;;10.00;10.00;;;;;15.57;80.63;101906.81;4982875;28;45336;-66
2023/05/08 08:55:44;;;;;;;;;15.25;13.25;;;;;15.59;80.33;101911.28;4993724;27;47481;-65
2023/05/08 08:58:10;;;;;;;;;11.25;11.00;;;;;15.67;79.90;101928.91;4971141;28;45410;-65
2023/05/08 09:00:36;;;;;;;;;14.00;12.25;;;;;15.44;80.10;101883.97;4962644;28;46315;-65
2023/05/08 09:03:04;;;;;;;;;10.75;9.75;;;;;15.69;80.16;101916.28;4962094;28;45560;-65
2023/05/08 09:05:30;;;;;;;;;12.25;12.25;;;;;15.72;79.90;101921.56;4994483;28;45600;-65
2023/05/08 09:07:57;;;;;;;;;10.00;9.00;;;;;15.67;80.30;101903.78;4965394;28;45422;-65
2023/05/08 09:10:24;;;;;;;;;13.50;11.25;;;;;15.64;80.07;101902.09;5002895;28;46275;-65
2023/05/08 09:12:49;;;;;;;;;8.50;7.00;;;;;15.78;79.97;101923.19;4984257;28;45403;-65
2023/05/08 09:15:15;;;;;;;;;12.50;11.25;;;;;15.71;80.32;101914.41;4975885;28;45597;-65
2023/05/08 09:17:40;;;;;;;;;9.75;9.75;;;;;15.61;79.74;101887.88;4992236;27;45809;-65
2023/05/08 09:20:06;;;;;;;;;9.50;9.50;;;;;15.79;79.51;101924.09;4986757;28;45378;-65
2023/05/08 09:22:35;;;;;;;;;12.00;10.00;;;;;15.69;79.85;101900.13;4958958;28;45479;-65
2023/05/08 09:25:06;;;;;;;;;10.75;10.25;;;;;15.73;79.66;101908.97;4981862;28;46094;-68
2023/05/08 09:27:34;;;;;;;;;13.50;12.00;;;;;15.76;79.40;101911.59;4974792;28;45519;-68
2023/05/08 09:30:10;;;;;;;;;14.50;11.25;;;;;15.75;79.22;101907.09;4980188;28;46281;-68
2023/05/08 09:32:41;;;;;;;;;9.75;9.75;;;;;15.93;79.09;101935.22;4979103;28;45370;-65
2023/05/08 09:35:08;;;;;;;;;11.75;11.00;;;;;15.80;79.50;101899.75;5036637;28;45381;-64
2023/05/08 09:37:40;;;;;;;;;9.75;9.75;;;;;15.86;79.41;101912.16;4970925;28;45464;-64
2023/05/08 09:40:20;;;;;;;;;10.25;9.50;;;;;15.81;79.73;101904.22;5040627;28;46166;-64
2023/05/08 09:42:47;;;;;;;;;10.50;10.50;;;;;15.94;80.01;101910.06;4963140;28;45763;-64
2023/05/08 09:45:26;;;;;;;;;12.00;11.00;;;;;15.84;79.60;101885.28;5028579;28;45471;-64
2023/05/08 09:47:52;;;;;;;;;9.25;9.25;;;;;15.98;79.53;101906.31;4965270;28;45783;-64
2023/05/08 09:50:17;;;;;;;;;10.25;8.50;;;;;15.87;79.49;101877.09;4969378;28;46248;-65
2023/05/08 09:52:49;;;;;;;;;12.75;10.00;;;;;15.93;79.93;101886.75;4958335;28;45449;-67
2023/05/08 09:55:14;;;;;;;;;10.00;10.00;;;;;16.08;79.22;101904.16;4973283;28;45351;-63
2023/05/08 09:57:52;;;;;;;;;15.00;9.00;;;;;16.04;79.03;101889.06;4967354;28;45493;-63
2023/05/08 10:00:18;;;;;;;;;9.50;7.75;;;;;16.09;78.89;101893.34;5012134;28;45506;-64
2023/05/08 10:02:56;;;;;;;;;10.25;9.25;;;;;16.00;78.89;101864.03;4965899;28;45530;-64
2023/05/08 10:05:30;;;;;;;;;8.75;7.75;;;;;16.15;78.50;101880.56;5006219;28;45455;-63
2023/05/08 10:07:56;;;;;;;;;10.25;9.75;;;;;16.06;78.56;101865.63;4973649;28;45533;-64
2023/05/08 10:10:26;;;;;;;;;15.00;11.00;;;;;16.11;78.36;101869.03;4991491;28;45464;-64
2023/05/08 10:12:53;;;;;;;;;11.00;11.00;;;;;16.26;77.69;101886.44;4958646;28;45692;-63
2023/05/08 10:15:24;;;;;;;;;9.25;9.25;;;;;16.20;77.79;101870.50;5000176;28;45342;-63
2023/05/08 10:18:01;;;;;;;;;14.00;11.75;;;;;16.32;78.01;101885.31;4965462;28;45494;-64
2023/05/08 10:20:30;;;;;;;;;7.75;7.25;;;;;16.28;77.32;101866.56;4974621;28;45645;-64
2023/05/08 10:22:59;;;;;;;;;11.75;11.00;;;;;16.28;77.84;101869.25;4968212;28;45451;-63
2023/05/08 10:25:31;;;;;;;;;10.75;9.50;;;;;16.06;76.90;101826.09;4968291;28;45419;-65
2023/05/08 10:28:05;;;;;;;;;8.75;8.75;;;;;16.39;77.06;101881.44;4961868;28;45323;-74
2023/05/08 10:30:35;;;;;;;;;10.50;10.00;;;;;16.39;76.78;101865.25;4976841;28;47165;-72
2023/05/08 10:33:07;;;;;;;;;13.00;9.50;;;;;16.24;77.37;101845.22;4969337;28;45342;-72
2023/05/08 10:35:33;;;;;;;;;6.75;5.25;;;;;16.42;76.90;101848.97;5025396;28;45307;-73
2023/05/08 10:38:00;;;;;;;;;7.25;7.00;;;;;16.53;76.82;101864.75;4966749;28;45424;-73
2023/05/08 10:40:25;;;;;;;;;8.00;8.00;;;;;16.41;75.56;101840.03;4976215;28;46103;-72
2023/05/08 10:42:51;;;;;;;;;11.00;9.00;;;;;16.40;76.50;101837.41;4962416;28;45326;-70
2023/05/08 10:45:17;;;;;;;;;8.00;7.75;;;;;16.51;76.88;101845.06;4987127;28;45707;-71
2023/05/08 10:48:01;;;;;;;;;11.75;11.00;;;;;16.66;77.28;101858.78;4965806;28;45461;-71
2023/05/08 10:50:26;;;;;;;;;9.00;8.25;;;;;16.73;76.76;101856.72;5002574;28;47899;-71
2023/05/08 10:53:14;;;;;;;;;10.00;8.25;;;;;16.82;76.95;101852.78;4977065;28;45404;-71
2023/05/08 10:55:44;;;;;;;;;8.50;7.75;;;;;16.56;76.45;101792.72;4991703;28;45352;-71
2023/05/08 10:58:27;;;;;;;;;9.00;9.00;;;;;16.86;76.34;101832.88;4966781;28;45626;-71
2023/05/08 11:00:55;;;;;;;;;9.50;8.75;;;;;16.98;75.68;101839.59;4977546;28;45402;-71
2023/05/08 11:03:23;;;;;;;;;10.50;7.50;;;;;16.98;75.69;101832.34;4967855;28;45551;-72
2023/05/08 11:05:51;;;;;;;;;9.00;9.00;;;;;16.89;75.98;101797.69;4976698;28;45518;-72
2023/05/08 11:08:18;;;;;;;;;8.25;8.25;;;;;16.79;75.33;101770.22;4975670;28;45490;-71
2023/05/08 11:10:51;;;;;;;;;9.50;9.50;;;;;16.94;74.73;101801.09;4991087;28;46484;-71
2023/05/08 11:13:18;;;;;;;;;10.00;10.00;;;;;16.92;74.69;101780.50;4955975;28;45612;-71
2023/05/08 11:15:49;;;;;;;;;8.50;8.25;;;;;17.06;74.35;101810.47;4986200;28;45426;-71
2023/05/08 11:18:16;;;;;;;;;9.00;7.50;;;;;16.83;75.01;101755.63;4968028;27;45533;-72
2023/05/08 11:20:56;;;;;;;;;8.75;8.75;;;;;17.18;74.92;101798.28;4970343;28;45452;-72
2023/05/08 11:23:30;;;;;;;;;8.25;7.25;;;;;17.30;75.01;101810.34;4963562;28;45442;-71
2023/05/08 11:26:11;;;;;;;;;6.75;5.50;;;;;17.28;74.91;101796.06;4959728;28;46779;-72
2023/05/08 11:28:54;;;;;;;;;7.25;7.25;;;;;17.40;74.71;101804.47;4962237;28;45434;-72
2023/05/08 11:32:27;;;;;;;;;7.75;7.75;;;;;17.32;74.54;101776.94;4974148;28;45882;-70
2023/05/08 11:34:48;;;;;;;;;9.75;8.75;;;;;17.35;74.17;101768.72;4973899;27;45827;-69
2023/05/08 11:37:23;;;;;;;;;6.75;6.75;;;;;17.35;74.27;101762.44;4961949;28;45564;-70
2023/05/08 11:39:49;;;;;;;;;9.50;8.50;;;;;17.35;73.89;101752.53;4960173;28;45498;-68
2023/05/08 11:42:24;;;;;;;;;8.00;7.50;;;;;17.61;74.97;101782.88;4960131;28;47720;-68
2023/05/08 11:45:20;;;;;;;;;8.50;8.25;;;;;17.34;75.46;101726.50;4976541;28;45873;-69
2023/05/08 11:47:46;;;;;;;;;7.00;7.00;;;;;17.56;73.85;101744.41;4957328;28;45555;-70
2023/05/08 11:50:22;;;;;;;;;8.25;7.75;;;;;17.44;74.32;101716.16;4982818;28;45433;-70
2023/05/08 11:52:50;;;;;;;;;8.00;7.50;;;;;17.58;74.65;101712.81;4961916;28;46562;-70
2023/05/08 11:55:18;;;;;;;;;8.25;6.25;;;;;17.84;74.03;101735.91;4982096;28;45521;-70
2023/05/08 11:57:48;;;;;;;;;12.50;7.00;;;;;17.87;74.03;101738.47;4964694;28;45464;-70
2023/05/08 12:00:30;;;;;;;;;;;;;;;;;;;;;
2023/05/08 12:02:55;;;;;;;;;8.00;8.00;;;;;17.82;73.13;101713.47;4964590;28;76801;-70
2023/05/08 12:05:26;;;;;;;;;8.00;6.50;;;;;17.80;73.37;101695.63;4972089;28;45574;-70
2023/05/08 12:07:51;;;;;;;;;8.25;8.25;;;;;17.89;73.99;101711.41;4969678;28;45902;-70
2023/05/08 12:10:17;;;;;;;;;7.25;7.25;;;;;17.94;73.57;101712.94;4994415;28;45544;-70
2023/05/08 12:12:43;;;;;;;;;8.75;7.50;;;;;17.92;73.00;101704.03;4965296;28;46736;-70
2023/05/08 12:15:11;;;;;;;;;9.50;7.25;;;;;18.11;73.16;101730.19;4973661;28;45722;-70
2023/05/08 12:17:37;;;;;;;;;7.25;7.25;;;;;17.97;73.30;101701.09;4978375;28;45512;-70
2023/05/08 12:20:14;;;;;;;;;9.75;7.25;;;;;18.20;73.23;101724.31;4965678;28;45668;-72
2023/05/08 12:22:41;;;;;;;;;7.00;7.00;;;;;18.23;72.99;101726.00;4969277;28;46288;-72
2023/05/08 12:25:08;;;;;;;;;7.00;7.00;;;;;17.93;72.96;101659.00;4993620;28;45637;-72
2023/05/08 12:27:35;;;;;;;;;7.75;6.25;;;;;18.19;72.44;101705.47;4979552;27;45779;-72
2023/05/08 12:30:08;;;;;;;;;6.00;6.00;;;;;18.27;72.15;101717.66;5002195;28;45271;-72
2023/05/08 12:32:37;;;;;;;;;5.00;4.00;;;;;18.17;72.01;101699.25;4986739;27;46124;-72
2023/05/08 12:35:07;;;;;;;;;7.50;7.50;;;;;18.20;72.16;101693.72;4960410;28;45555;-72
2023/05/08 12:37:32;;;;;;;;;7.25;7.00;;;;;18.12;72.91;101678.72;4968713;28;45484;-73
2023/05/08 12:40:00;;;;;;;;;5.75;5.75;;;;;18.15;72.48;101678.59;4978521;28;45843;-73
2023/05/08 12:43:02;;;;;;;;;6.75;6.25;;;;;18.09;72.91;101673.50;5009183;27;45327;-73
2023/05/08 12:45:31;;;;;;;;;5.75;4.00;;;;;18.31;73.06;101697.63;5001968;27;45407;-73
2023/05/08 12:48:04;;;;;;;;;8.50;6.50;;;;;18.37;72.86;101707.25;4964797;27;45826;-73
2023/05/08 12:50:34;;;;;;;;;8.00;7.00;;;;;18.28;72.49;101681.56;5005004;28;45323;-73
2023/05/08 12:53:11;;;;;;;;;6.75;5.00;;;;;18.47;72.57;101703.13;4974409;27;45471;-73
2023/05/08 12:55:40;;;;;;;;;7.00;7.00;;;;;18.31;72.43;101677.84;4990752;28;45579;-73
2023/05/08 12:58:12;;;;;;;;;6.50;6.50;;;;;18.30;72.41;101671.56;4976507;28;45373;-73